CET54K KMCO-KFLL
Flight info
| Callsign | CET54K |
|---|---|
| Flight time | 0h 45m |
| Altitude | 31000 |
| Route | DDANY3 JIPOD CUUDA3 |
| Aircraft | E195/M-SDE3GILORVW/S |
Departure
| Time | 2026-05-05 18:13 |
|---|---|
| Airport | Orlando International Airport (KMCO) |
Arrival
| Time | 2026-05-05 18:58 |
|---|---|
| Airport | Fort Lauderdale Hollywood International Airport (KFLL) |
| Time | Latitude | Longitude | Altitude | Speed | Heading |
|---|---|---|---|---|---|
| 2026-05-05 17:41 | 28.43591 | -81.30064 | 93 ft | 0 kts | 258° |
| 2026-05-05 17:59 | 28.43592 | -81.30059 | 93 ft | 3 kts | 258° |
| 2026-05-05 17:59 | 28.43597 | -81.30030 | 95 ft | 2 kts | 258° |
| 2026-05-05 17:59 | 28.43602 | -81.30006 | 93 ft | 4 kts | 269° |
| 2026-05-05 17:59 | 28.43598 | -81.29980 | 93 ft | 4 kts | 285° |
| 2026-05-05 18:00 | 28.43600 | -81.29961 | 93 ft | 4 kts | 202° |
| 2026-05-05 18:00 | 28.43623 | -81.29953 | 94 ft | 2 kts | 194° |
| 2026-05-05 18:00 | 28.43624 | -81.29953 | 94 ft | 0 kts | 194° |
| 2026-05-05 18:05 | 28.43616 | -81.29954 | 95 ft | 2 kts | 185° |
| 2026-05-05 18:05 | 28.43597 | -81.29944 | 95 ft | 4 kts | 151° |
| 2026-05-05 18:05 | 28.43565 | -81.29920 | 95 ft | 7 kts | 135° |
| 2026-05-05 18:05 | 28.43552 | -81.29863 | 97 ft | 9 kts | 92° |
| 2026-05-05 18:06 | 28.43514 | -81.29811 | 93 ft | 10 kts | 163° |
| 2026-05-05 18:06 | 28.43465 | -81.29807 | 94 ft | 12 kts | 179° |
| 2026-05-05 18:06 | 28.43343 | -81.29803 | 93 ft | 15 kts | 178° |
| 2026-05-05 18:06 | 28.43234 | -81.29800 | 95 ft | 17 kts | 180° |
| 2026-05-05 18:07 | 28.43111 | -81.29801 | 95 ft | 19 kts | 180° |
| 2026-05-05 18:07 | 28.42975 | -81.29800 | 95 ft | 20 kts | 179° |
| 2026-05-05 18:07 | 28.42828 | -81.29799 | 93 ft | 22 kts | 179° |
| 2026-05-05 18:07 | 28.42669 | -81.29797 | 96 ft | 23 kts | 179° |
| 2026-05-05 18:08 | 28.42500 | -81.29790 | 95 ft | 25 kts | 177° |
| 2026-05-05 18:08 | 28.42329 | -81.29789 | 93 ft | 25 kts | 181° |
| 2026-05-05 18:08 | 28.42147 | -81.29791 | 94 ft | 26 kts | 180° |
| 2026-05-05 18:08 | 28.41961 | -81.29789 | 93 ft | 27 kts | 179° |
| 2026-05-05 18:09 | 28.41771 | -81.29788 | 93 ft | 28 kts | 180° |
| 2026-05-05 18:09 | 28.41574 | -81.29785 | 94 ft | 29 kts | 179° |
| 2026-05-05 18:09 | 28.41372 | -81.29785 | 95 ft | 29 kts | 179° |
| 2026-05-05 18:09 | 28.41164 | -81.29782 | 93 ft | 30 kts | 179° |
| 2026-05-05 18:10 | 28.40965 | -81.29779 | 94 ft | 23 kts | 177° |
| 2026-05-05 18:10 | 28.40825 | -81.29748 | 93 ft | 19 kts | 116° |
| 2026-05-05 18:10 | 28.40821 | -81.29662 | 94 ft | 3 kts | 89° |
| 2026-05-05 18:10 | 28.40821 | -81.29628 | 94 ft | 6 kts | 89° |
| 2026-05-05 18:11 | 28.40826 | -81.29571 | 92 ft | 8 kts | 66° |
| 2026-05-05 18:11 | 28.40879 | -81.29559 | 93 ft | 8 kts | 359° |
| 2026-05-05 18:11 | 28.40885 | -81.29559 | 92 ft | 0 kts | 359° |
| 2026-05-05 18:12 | 28.40902 | -81.29559 | 92 ft | 8 kts | 359° |
| 2026-05-05 18:12 | 28.41232 | -81.29563 | 95 ft | 88 kts | 359° |
| 2026-05-05 18:12 | 28.42104 | -81.29565 | 115 ft | 158 kts | 359° |
| 2026-05-05 18:13 | 28.43272 | -81.29619 | 830 ft | 174 kts | 356° |
| 2026-05-05 18:13 | 28.44445 | -81.29769 | 2174 ft | 165 kts | 345° |
| 2026-05-05 18:13 | 28.45638 | -81.29959 | 3057 ft | 191 kts | 8° |
| 2026-05-05 18:13 | 28.46762 | -81.29229 | 3647 ft | 187 kts | 54° |
| 2026-05-05 18:14 | 28.47239 | -81.27844 | 3822 ft | 185 kts | 76° |
| 2026-05-05 18:14 | 28.47655 | -81.26470 | 4041 ft | 184 kts | 65° |
| 2026-05-05 18:14 | 28.48262 | -81.25192 | 4226 ft | 184 kts | 60° |
| 2026-05-05 18:14 | 28.48912 | -81.23935 | 4384 ft | 186 kts | 59° |
| 2026-05-05 18:15 | 28.49570 | -81.22672 | 4527 ft | 190 kts | 60° |
| 2026-05-05 18:15 | 28.50136 | -81.21299 | 4686 ft | 195 kts | 71° |
| 2026-05-05 18:15 | 28.50477 | -81.19780 | 4866 ft | 201 kts | 78° |
| 2026-05-05 18:15 | 28.50757 | -81.18171 | 5491 ft | 212 kts | 79° |
| 2026-05-05 18:16 | 28.50926 | -81.16477 | 6214 ft | 221 kts | 94° |
| 2026-05-05 18:16 | 28.50611 | -81.14727 | 6877 ft | 230 kts | 106° |
| 2026-05-05 18:16 | 28.50176 | -81.12912 | 7446 ft | 245 kts | 106° |
| 2026-05-05 18:16 | 28.49736 | -81.10993 | 8055 ft | 256 kts | 106° |
| 2026-05-05 18:17 | 28.49275 | -81.08989 | 8789 ft | 268 kts | 106° |
| 2026-05-05 18:17 | 28.48774 | -81.06821 | 9278 ft | 297 kts | 107° |
| 2026-05-05 18:17 | 28.47920 | -81.04635 | 10077 ft | 308 kts | 130° |
| 2026-05-05 18:17 | 28.46316 | -81.02913 | 10658 ft | 328 kts | 145° |
| 2026-05-05 18:18 | 28.44471 | -81.01320 | 11594 ft | 338 kts | 144° |
| 2026-05-05 18:18 | 28.42610 | -80.99625 | 12609 ft | 347 kts | 144° |
| 2026-05-05 18:18 | 28.40710 | -80.97886 | 13633 ft | 355 kts | 144° |
| 2026-05-05 18:18 | 28.38768 | -80.96114 | 14607 ft | 362 kts | 143° |
| 2026-05-05 18:19 | 28.36784 | -80.94310 | 15598 ft | 369 kts | 143° |
| 2026-05-05 18:19 | 28.34756 | -80.92475 | 16569 ft | 376 kts | 143° |
| 2026-05-05 18:19 | 28.32688 | -80.90616 | 17519 ft | 382 kts | 143° |
| 2026-05-05 18:19 | 28.30582 | -80.88736 | 18433 ft | 389 kts | 144° |
| 2026-05-05 18:20 | 28.28455 | -80.86796 | 19125 ft | 398 kts | 139° |
| 2026-05-05 18:20 | 28.27229 | -80.85234 | 19555 ft | 405 kts | 125° |
| 2026-05-05 18:20 | 28.25593 | -80.81353 | 20488 ft | 413 kts | 109° |
| 2026-05-05 18:20 | 28.24644 | -80.78243 | 21165 ft | 421 kts | 108° |
| 2026-05-05 18:21 | 28.23644 | -80.75097 | 21844 ft | 428 kts | 109° |
| 2026-05-05 18:21 | 28.22583 | -80.71912 | 22516 ft | 434 kts | 110° |
| 2026-05-05 18:21 | 28.21491 | -80.68694 | 23170 ft | 441 kts | 110° |
| 2026-05-05 18:21 | 28.20384 | -80.65425 | 23754 ft | 448 kts | 110° |
| 2026-05-05 18:22 | 28.19297 | -80.62108 | 24319 ft | 451 kts | 109° |
| 2026-05-05 18:22 | 28.18204 | -80.58769 | 24877 ft | 454 kts | 109° |
| 2026-05-05 18:22 | 28.17094 | -80.55393 | 25421 ft | 458 kts | 109° |
| 2026-05-05 18:22 | 28.15975 | -80.51998 | 25945 ft | 462 kts | 109° |
| 2026-05-05 18:23 | 28.14846 | -80.48586 | 26480 ft | 465 kts | 109° |
| 2026-05-05 18:23 | 28.13702 | -80.45131 | 26998 ft | 469 kts | 109° |
| 2026-05-05 18:23 | 28.12549 | -80.41653 | 27507 ft | 473 kts | 109° |
| 2026-05-05 18:23 | 28.11387 | -80.38157 | 28001 ft | 476 kts | 109° |
| 2026-05-05 18:24 | 28.10090 | -80.34686 | 28447 ft | 482 kts | 118° |
| 2026-05-05 18:24 | 28.07986 | -80.31737 | 28850 ft | 484 kts | 142° |
| 2026-05-05 18:24 | 28.06135 | -80.30359 | 29176 ft | 479 kts | 158° |
| 2026-05-05 18:24 | 28.03034 | -80.29120 | 29788 ft | 471 kts | 169° |
| 2026-05-05 18:25 | 27.98889 | -80.27668 | 30467 ft | 471 kts | 166° |
| 2026-05-05 18:25 | 27.97834 | -80.27273 | 30609 ft | 472 kts | 166° |
| 2026-05-05 18:25 | 27.92649 | -80.25307 | 31192 ft | 477 kts | 166° |
| 2026-05-05 18:26 | 27.86327 | -80.22933 | 31160 ft | 479 kts | 166° |
| 2026-05-05 18:26 | 27.81023 | -80.20922 | 31157 ft | 480 kts | 166° |
| 2026-05-05 18:27 | 27.74695 | -80.18509 | 31104 ft | 480 kts | 166° |
| 2026-05-05 18:27 | 27.68382 | -80.16094 | 31079 ft | 480 kts | 166° |
| 2026-05-05 18:28 | 27.58905 | -80.12420 | 31081 ft | 481 kts | 164° |
| 2026-05-05 18:28 | 27.52665 | -80.09816 | 30958 ft | 481 kts | 164° |
| 2026-05-05 18:29 | 27.49529 | -80.08515 | 30566 ft | 478 kts | 164° |
| 2026-05-05 18:29 | 27.46415 | -80.07228 | 29979 ft | 478 kts | 164° |
| 2026-05-05 18:29 | 27.43295 | -80.05941 | 29336 ft | 476 kts | 164° |
| 2026-05-05 18:29 | 27.40194 | -80.04661 | 28661 ft | 474 kts | 164° |
| 2026-05-05 18:30 | 27.37104 | -80.03409 | 28023 ft | 469 kts | 167° |
| 2026-05-05 18:30 | 27.33991 | -80.02465 | 27408 ft | 460 kts | 171° |
| 2026-05-05 18:30 | 27.30904 | -80.01560 | 26792 ft | 456 kts | 170° |
| 2026-05-05 18:30 | 27.27860 | -80.00646 | 26186 ft | 450 kts | 171° |
| 2026-05-05 18:31 | 27.24855 | -79.99736 | 25592 ft | 445 kts | 169° |
| 2026-05-05 18:31 | 27.21914 | -79.98694 | 25013 ft | 441 kts | 167° |
| 2026-05-05 18:31 | 27.19014 | -79.97630 | 24419 ft | 436 kts | 167° |
| 2026-05-05 18:31 | 27.16147 | -79.96586 | 23850 ft | 431 kts | 167° |
| 2026-05-05 18:32 | 27.13309 | -79.95557 | 23234 ft | 425 kts | 168° |
| 2026-05-05 18:32 | 27.10525 | -79.94547 | 22703 ft | 417 kts | 167° |
| 2026-05-05 18:32 | 27.07785 | -79.93557 | 22132 ft | 412 kts | 167° |
| 2026-05-05 18:32 | 27.05078 | -79.92554 | 21601 ft | 408 kts | 165° |
| 2026-05-05 18:33 | 27.02422 | -79.91458 | 21039 ft | 405 kts | 165° |
| 2026-05-05 18:33 | 26.99789 | -79.90384 | 20510 ft | 401 kts | 165° |
| 2026-05-05 18:33 | 26.97175 | -79.89319 | 19991 ft | 398 kts | 164° |
| 2026-05-05 18:33 | 26.94582 | -79.88268 | 19455 ft | 395 kts | 164° |
| 2026-05-05 18:34 | 26.92013 | -79.87226 | 18933 ft | 391 kts | 164° |
| 2026-05-05 18:34 | 26.89466 | -79.86199 | 18421 ft | 387 kts | 164° |
| 2026-05-05 18:34 | 26.86942 | -79.85178 | 17874 ft | 382 kts | 164° |
| 2026-05-05 18:34 | 26.84467 | -79.84179 | 17394 ft | 376 kts | 164° |
| 2026-05-05 18:35 | 26.82019 | -79.83192 | 16896 ft | 372 kts | 164° |
| 2026-05-05 18:35 | 26.79597 | -79.82216 | 16402 ft | 369 kts | 164° |
| 2026-05-05 18:35 | 26.77192 | -79.81247 | 15917 ft | 366 kts | 164° |
| 2026-05-05 18:35 | 26.74803 | -79.80288 | 15431 ft | 362 kts | 164° |
| 2026-05-05 18:36 | 26.72449 | -79.79340 | 14957 ft | 358 kts | 164° |
| 2026-05-05 18:36 | 26.70073 | -79.78672 | 14461 ft | 346 kts | 182° |
| 2026-05-05 18:36 | 26.67779 | -79.79111 | 14056 ft | 328 kts | 204° |
| 2026-05-05 18:36 | 26.65679 | -79.80029 | 13577 ft | 322 kts | 205° |
| 2026-05-05 18:37 | 26.63609 | -79.80908 | 13175 ft | 315 kts | 205° |
| 2026-05-05 18:37 | 26.61576 | -79.81759 | 12757 ft | 310 kts | 204° |
| 2026-05-05 18:37 | 26.59572 | -79.82592 | 12346 ft | 305 kts | 204° |
| 2026-05-05 18:37 | 26.57596 | -79.83404 | 11937 ft | 300 kts | 204° |
| 2026-05-05 18:38 | 26.55646 | -79.84204 | 11548 ft | 296 kts | 204° |
| 2026-05-05 18:38 | 26.53742 | -79.85035 | 11156 ft | 292 kts | 206° |
| 2026-05-05 18:38 | 26.51915 | -79.85924 | 10776 ft | 290 kts | 206° |
| 2026-05-05 18:38 | 26.50033 | -79.86818 | 10385 ft | 289 kts | 206° |
| 2026-05-05 18:39 | 26.48191 | -79.87692 | 10011 ft | 287 kts | 206° |
| 2026-05-05 18:39 | 26.46355 | -79.88559 | 9615 ft | 285 kts | 206° |
| 2026-05-05 18:39 | 26.44534 | -79.89418 | 9246 ft | 284 kts | 206° |
| 2026-05-05 18:39 | 26.42710 | -79.90274 | 8864 ft | 283 kts | 205° |
| 2026-05-05 18:40 | 26.40921 | -79.91114 | 8493 ft | 282 kts | 205° |
| 2026-05-05 18:40 | 26.39097 | -79.91970 | 8237 ft | 278 kts | 205° |
| 2026-05-05 18:40 | 26.37356 | -79.92819 | 8105 ft | 275 kts | 210° |
| 2026-05-05 18:40 | 26.35691 | -79.93914 | 8069 ft | 275 kts | 214° |
| 2026-05-05 18:41 | 26.34065 | -79.95011 | 8020 ft | 277 kts | 213° |
| 2026-05-05 18:41 | 26.32399 | -79.96106 | 8027 ft | 280 kts | 212° |
| 2026-05-05 18:41 | 26.30718 | -79.97200 | 8046 ft | 280 kts | 212° |
| 2026-05-05 18:41 | 26.29034 | -79.98288 | 8139 ft | 280 kts | 212° |
| 2026-05-05 18:42 | 26.27329 | -79.99407 | 7753 ft | 288 kts | 212° |
| 2026-05-05 18:42 | 26.25600 | -80.00517 | 7329 ft | 286 kts | 212° |
| 2026-05-05 18:42 | 26.23880 | -80.01614 | 6919 ft | 283 kts | 212° |
| 2026-05-05 18:42 | 26.22181 | -80.02704 | 6514 ft | 281 kts | 212° |
| 2026-05-05 18:43 | 26.20488 | -80.03786 | 6092 ft | 279 kts | 212° |
| 2026-05-05 18:43 | 26.18842 | -80.04899 | 5668 ft | 274 kts | 220° |
| 2026-05-05 18:43 | 26.17695 | -80.06525 | 5246 ft | 268 kts | 249° |
| 2026-05-05 18:43 | 26.17105 | -80.08481 | 4839 ft | 267 kts | 255° |
| 2026-05-05 18:44 | 26.16554 | -80.10453 | 4399 ft | 267 kts | 253° |
| 2026-05-05 18:44 | 26.15968 | -80.12414 | 3983 ft | 267 kts | 252° |
| 2026-05-05 18:44 | 26.15366 | -80.14369 | 3569 ft | 267 kts | 252° |
| 2026-05-05 18:44 | 26.15006 | -80.16373 | 3147 ft | 264 kts | 268° |
| 2026-05-05 18:45 | 26.15009 | -80.18380 | 3180 ft | 253 kts | 272° |
| 2026-05-05 18:45 | 26.15052 | -80.20304 | 4108 ft | 255 kts | 272° |
| 2026-05-05 18:45 | 26.15074 | -80.22339 | 4483 ft | 268 kts | 271° |
| 2026-05-05 18:45 | 26.15088 | -80.24370 | 4597 ft | 256 kts | 271° |
| 2026-05-05 18:46 | 26.15098 | -80.26290 | 4552 ft | 243 kts | 271° |
| 2026-05-05 18:46 | 26.15105 | -80.28132 | 4454 ft | 233 kts | 271° |
| 2026-05-05 18:46 | 26.15113 | -80.29912 | 4240 ft | 228 kts | 271° |
| 2026-05-05 18:46 | 26.15125 | -80.31667 | 4002 ft | 226 kts | 271° |
| 2026-05-05 18:47 | 26.15133 | -80.33407 | 3737 ft | 225 kts | 271° |
| 2026-05-05 18:47 | 26.15140 | -80.35151 | 3450 ft | 226 kts | 271° |
| 2026-05-05 18:47 | 26.15145 | -80.36910 | 3118 ft | 229 kts | 271° |
| 2026-05-05 18:47 | 26.15152 | -80.38692 | 3082 ft | 235 kts | 271° |
| 2026-05-05 18:48 | 26.15167 | -80.40549 | 3712 ft | 252 kts | 271° |
| 2026-05-05 18:48 | 26.15177 | -80.42563 | 3661 ft | 262 kts | 271° |
| 2026-05-05 18:48 | 26.15193 | -80.44616 | 3438 ft | 267 kts | 271° |
| 2026-05-05 18:48 | 26.15215 | -80.46688 | 3207 ft | 268 kts | 271° |
| 2026-05-05 18:49 | 26.15237 | -80.48757 | 2973 ft | 267 kts | 271° |
| 2026-05-05 18:49 | 26.15209 | -80.50822 | 2742 ft | 267 kts | 263° |
| 2026-05-05 18:49 | 26.14578 | -80.52746 | 2509 ft | 267 kts | 235° |
| 2026-05-05 18:49 | 26.13196 | -80.54066 | 2489 ft | 262 kts | 205° |
| 2026-05-05 18:50 | 26.11490 | -80.54460 | 2496 ft | 244 kts | 179° |
| 2026-05-05 18:50 | 26.09839 | -80.54407 | 2484 ft | 232 kts | 179° |
| 2026-05-05 18:50 | 26.08294 | -80.54121 | 2474 ft | 224 kts | 155° |
| 2026-05-05 18:50 | 26.06971 | -80.53230 | 2514 ft | 223 kts | 145° |
| 2026-05-05 18:51 | 26.05867 | -80.52045 | 2475 ft | 221 kts | 118° |
| 2026-05-05 18:51 | 26.05504 | -80.50427 | 2488 ft | 218 kts | 86° |
| 2026-05-05 18:51 | 26.05747 | -80.48765 | 2500 ft | 219 kts | 78° |
| 2026-05-05 18:51 | 26.06069 | -80.47111 | 2510 ft | 219 kts | 77° |
| 2026-05-05 18:52 | 26.06382 | -80.45460 | 2528 ft | 218 kts | 78° |
| 2026-05-05 18:52 | 26.06691 | -80.43806 | 2536 ft | 218 kts | 78° |
| 2026-05-05 18:52 | 26.06999 | -80.42150 | 2524 ft | 219 kts | 78° |
| 2026-05-05 18:52 | 26.07314 | -80.40495 | 2483 ft | 217 kts | 76° |
| 2026-05-05 18:53 | 26.07720 | -80.38879 | 2493 ft | 217 kts | 77° |
| 2026-05-05 18:53 | 26.07827 | -80.37205 | 2511 ft | 218 kts | 92° |
| 2026-05-05 18:53 | 26.07740 | -80.35515 | 2508 ft | 219 kts | 90° |
| 2026-05-05 18:53 | 26.07773 | -80.33834 | 2532 ft | 214 kts | 87° |
| 2026-05-05 18:54 | 26.07788 | -80.32200 | 2600 ft | 206 kts | 90° |
| 2026-05-05 18:54 | 26.07773 | -80.30646 | 2430 ft | 197 kts | 90° |
| 2026-05-05 18:54 | 26.07761 | -80.29160 | 2172 ft | 188 kts | 90° |
| 2026-05-05 18:54 | 26.07754 | -80.27735 | 1933 ft | 181 kts | 89° |
| 2026-05-05 18:55 | 26.07748 | -80.26366 | 1706 ft | 171 kts | 90° |
| 2026-05-05 18:55 | 26.07727 | -80.25095 | 1488 ft | 159 kts | 89° |
| 2026-05-05 18:55 | 26.07732 | -80.23907 | 1286 ft | 149 kts | 89° |
| 2026-05-05 18:55 | 26.07731 | -80.22789 | 1075 ft | 141 kts | 87° |
| 2026-05-05 18:56 | 26.07722 | -80.21728 | 955 ft | 133 kts | 88° |
| 2026-05-05 18:56 | 26.07717 | -80.20681 | 745 ft | 137 kts | 88° |
| 2026-05-05 18:56 | 26.07717 | -80.19615 | 588 ft | 138 kts | 91° |
| 2026-05-05 18:56 | 26.07708 | -80.18538 | 411 ft | 141 kts | 90° |
| 2026-05-05 18:57 | 26.07701 | -80.17469 | 201 ft | 137 kts | 91° |
| 2026-05-05 18:57 | 26.07695 | -80.16427 | 46 ft | 133 kts | 91° |
| 2026-05-05 18:57 | 26.07688 | -80.15486 | 14 ft | 110 kts | 91° |
| 2026-05-05 18:57 | 26.07685 | -80.14789 | 18 ft | 65 kts | 90° |
| 2026-05-05 18:58 | 26.07650 | -80.14447 | 19 ft | 34 kts | 117° |
| 2026-05-05 18:58 | 26.07559 | -80.14272 | 16 ft | 12 kts | 121° |
| 2026-05-05 18:58 | 26.07513 | -80.14227 | 15 ft | 10 kts | 154° |
| 2026-05-05 18:58 | 26.07439 | -80.14193 | 15 ft | 12 kts | 168° |
| 2026-05-05 18:59 | 26.07368 | -80.14191 | 15 ft | 7 kts | 170° |
| 2026-05-05 18:59 | 26.07358 | -80.14179 | 15 ft | 4 kts | 121° |
| 2026-05-05 18:59 | 26.07346 | -80.14143 | 15 ft | 4 kts | 109° |
| 2026-05-05 18:59 | 26.07339 | -80.14120 | 15 ft | 0 kts | 109° |